sensor_id;sensor_type;location;lat;lon;timestamp;temperature;humidity
33580;DHT22;19909;43.644;-79.438;2022-11-15T00:00:57;19.80;37.70
33580;DHT22;19909;43.644;-79.438;2022-11-15T00:03:26;19.80;37.50
33580;DHT22;19909;43.644;-79.438;2022-11-15T00:05:53;19.80;37.30
33580;DHT22;19909;43.644;-79.438;2022-11-15T00:08:20;19.80;37.60
33580;DHT22;19909;43.644;-79.438;2022-11-15T00:11:04;19.80;37.30
33580;DHT22;19909;43.644;-79.438;2022-11-15T00:13:31;19.80;37.50
33580;DHT22;19909;43.644;-79.438;2022-11-15T00:15:59;19.80;37.60
33580;DHT22;19909;43.644;-79.438;2022-11-15T00:18:26;19.80;37.60
33580;DHT22;19909;43.644;-79.438;2022-11-15T00:20:52;19.80;37.40
33580;DHT22;19909;43.644;-79.438;2022-11-15T00:23:19;19.80;37.40
33580;DHT22;19909;43.644;-79.438;2022-11-15T00:25:45;19.80;37.90
33580;DHT22;19909;43.644;-79.438;2022-11-15T00:28:12;19.70;37.40
33580;DHT22;19909;43.644;-79.438;2022-11-15T00:30:38;19.80;37.60
33580;DHT22;19909;43.644;-79.438;2022-11-15T00:33:05;19.80;37.60
33580;DHT22;19909;43.644;-79.438;2022-11-15T00:35:33;19.80;37.40
33580;DHT22;19909;43.644;-79.438;2022-11-15T00:38:00;19.70;37.30
33580;DHT22;19909;43.644;-79.438;2022-11-15T00:40:28;19.70;37.30
33580;DHT22;19909;43.644;-79.438;2022-11-15T00:42:54;19.70;37.40
33580;DHT22;19909;43.644;-79.438;2022-11-15T00:45:21;19.70;37.60
33580;DHT22;19909;43.644;-79.438;2022-11-15T00:47:47;19.80;37.70
33580;DHT22;19909;43.644;-79.438;2022-11-15T00:50:14;19.70;37.50
33580;DHT22;19909;43.644;-79.438;2022-11-15T00:52:40;19.70;37.90
33580;DHT22;19909;43.644;-79.438;2022-11-15T00:55:08;19.70;37.30
33580;DHT22;19909;43.644;-79.438;2022-11-15T00:57:35;19.70;37.40
33580;DHT22;19909;43.644;-79.438;2022-11-15T01:00:02;19.70;37.60
33580;DHT22;19909;43.644;-79.438;2022-11-15T01:02:28;19.70;37.60
33580;DHT22;19909;43.644;-79.438;2022-11-15T01:04:55;19.80;37.40
33580;DHT22;19909;43.644;-79.438;2022-11-15T01:07:21;19.70;37.40
33580;DHT22;19909;43.644;-79.438;2022-11-15T01:09:48;19.70;37.30
33580;DHT22;19909;43.644;-79.438;2022-11-15T01:12:14;19.70;37.70
33580;DHT22;19909;43.644;-79.438;2022-11-15T01:14:41;19.70;37.60
33580;DHT22;19909;43.644;-79.438;2022-11-15T01:17:07;19.70;37.70
33580;DHT22;19909;43.644;-79.438;2022-11-15T01:19:34;19.70;37.40
33580;DHT22;19909;43.644;-79.438;2022-11-15T01:22:01;19.70;37.40
33580;DHT22;19909;43.644;-79.438;2022-11-15T01:24:27;19.70;37.40
33580;DHT22;19909;43.644;-79.438;2022-11-15T01:26:54;19.70;37.40
33580;DHT22;19909;43.644;-79.438;2022-11-15T01:29:20;19.70;37.70
33580;DHT22;19909;43.644;-79.438;2022-11-15T01:31:47;19.70;37.60
33580;DHT22;19909;43.644;-79.438;2022-11-15T01:34:13;19.70;37.50
33580;DHT22;19909;43.644;-79.438;2022-11-15T01:36:41;19.70;37.50
33580;DHT22;19909;43.644;-79.438;2022-11-15T01:39:08;19.70;37.30
33580;DHT22;19909;43.644;-79.438;2022-11-15T01:41:34;19.70;37.40
33580;DHT22;19909;43.644;-79.438;2022-11-15T01:44:53;19.70;37.70
33580;DHT22;19909;43.644;-79.438;2022-11-15T01:47:17;19.70;37.70
33580;DHT22;19909;43.644;-79.438;2022-11-15T01:52:19;19.60;37.30
33580;DHT22;19909;43.644;-79.438;2022-11-15T01:54:50;19.60;37.30
33580;DHT22;19909;43.644;-79.438;2022-11-15T01:57:19;19.60;37.40
33580;DHT22;19909;43.644;-79.438;2022-11-15T01:59:46;19.60;37.70
33580;DHT22;19909;43.644;-79.438;2022-11-15T02:02:13;19.60;37.70
33580;DHT22;19909;43.644;-79.438;2022-11-15T02:04:46;19.60;37.50
33580;DHT22;19909;43.644;-79.438;2022-11-15T02:07:16;19.60;37.50
33580;DHT22;19909;43.644;-79.438;2022-11-15T02:09:44;19.60;37.40
33580;DHT22;19909;43.644;-79.438;2022-11-15T02:12:13;19.60;37.50
33580;DHT22;19909;43.644;-79.438;2022-11-15T02:14:43;19.60;37.60
33580;DHT22;19909;43.644;-79.438;2022-11-15T02:20:39;19.60;37.60
33580;DHT22;19909;43.644;-79.438;2022-11-15T02:28:45;19.60;37.70
33580;DHT22;19909;43.644;-79.438;2022-11-15T02:31:36;19.60;37.80
33580;DHT22;19909;43.644;-79.438;2022-11-15T02:34:22;19.60;37.60
33580;DHT22;19909;43.644;-79.438;2022-11-15T02:37:10;19.60;37.50
33580;DHT22;19909;43.644;-79.438;2022-11-15T02:40:00;19.60;37.40
33580;DHT22;19909;43.644;-79.438;2022-11-15T02:42:36;19.50;37.70
33580;DHT22;19909;43.644;-79.438;2022-11-15T02:45:30;19.50;37.80
33580;DHT22;19909;43.644;-79.438;2022-11-15T02:47:58;19.60;37.70
33580;DHT22;19909;43.644;-79.438;2022-11-15T02:50:28;19.50;37.50
33580;DHT22;19909;43.644;-79.438;2022-11-15T02:52:56;19.50;37.50
33580;DHT22;19909;43.644;-79.438;2022-11-15T02:55:49;19.50;37.50
33580;DHT22;19909;43.644;-79.438;2022-11-15T02:58:48;19.50;37.60
33580;DHT22;19909;43.644;-79.438;2022-11-15T03:07:00;19.50;37.60
33580;DHT22;19909;43.644;-79.438;2022-11-15T03:10:01;19.50;37.50
33580;DHT22;19909;43.644;-79.438;2022-11-15T03:12:41;19.50;37.60
33580;DHT22;19909;43.644;-79.438;2022-11-15T03:15:23;19.50;37.70
33580;DHT22;19909;43.644;-79.438;2022-11-15T03:17:55;19.50;37.70
33580;DHT22;19909;43.644;-79.438;2022-11-15T03:20:25;19.50;37.60
33580;DHT22;19909;43.644;-79.438;2022-11-15T03:22:55;19.50;37.60
33580;DHT22;19909;43.644;-79.438;2022-11-15T03:25:24;19.50;37.70
33580;DHT22;19909;43.644;-79.438;2022-11-15T03:27:55;19.50;37.70
33580;DHT22;19909;43.644;-79.438;2022-11-15T03:30:23;19.50;37.80
33580;DHT22;19909;43.644;-79.438;2022-11-15T03:32:53;19.50;37.70
33580;DHT22;19909;43.644;-79.438;2022-11-15T03:35:23;19.50;37.60
33580;DHT22;19909;43.644;-79.438;2022-11-15T03:40:59;19.50;37.50
33580;DHT22;19909;43.644;-79.438;2022-11-15T03:43:43;19.50;37.70
33580;DHT22;19909;43.644;-79.438;2022-11-15T03:46:19;19.50;37.80
33580;DHT22;19909;43.644;-79.438;2022-11-15T03:48:52;19.50;37.60
33580;DHT22;19909;43.644;-79.438;2022-11-15T03:51:20;19.50;37.50
33580;DHT22;19909;43.644;-79.438;2022-11-15T03:53:46;19.50;37.60
33580;DHT22;19909;43.644;-79.438;2022-11-15T03:56:13;19.50;37.50
33580;DHT22;19909;43.644;-79.438;2022-11-15T03:58:40;19.40;37.60
33580;DHT22;19909;43.644;-79.438;2022-11-15T04:01:06;19.50;37.80
33580;DHT22;19909;43.644;-79.438;2022-11-15T04:03:33;19.50;37.60
33580;DHT22;19909;43.644;-79.438;2022-11-15T04:05:59;19.50;37.60
33580;DHT22;19909;43.644;-79.438;2022-11-15T04:08:25;19.50;37.50
33580;DHT22;19909;43.644;-79.438;2022-11-15T04:10:52;19.50;37.50
33580;DHT22;19909;43.644;-79.438;2022-11-15T04:13:18;19.50;37.60
33580;DHT22;19909;43.644;-79.438;2022-11-15T04:15:45;19.50;37.70
33580;DHT22;19909;43.644;-79.438;2022-11-15T04:18:11;19.50;37.60
33580;DHT22;19909;43.644;-79.438;2022-11-15T04:20:37;19.50;37.60
33580;DHT22;19909;43.644;-79.438;2022-11-15T04:23:23;19.50;37.50
33580;DHT22;19909;43.644;-79.438;2022-11-15T04:26:20;19.50;37.50
33580;DHT22;19909;43.644;-79.438;2022-11-15T04:28:47;19.50;37.60
33580;DHT22;19909;43.644;-79.438;2022-11-15T04:31:45;19.50;37.70
33580;DHT22;19909;43.644;-79.438;2022-11-15T04:34:12;19.50;37.60
33580;DHT22;19909;43.644;-79.438;2022-11-15T04:36:38;19.50;37.50
33580;DHT22;19909;43.644;-79.438;2022-11-15T04:39:23;19.40;37.40
33580;DHT22;19909;43.644;-79.438;2022-11-15T04:41:49;19.40;37.50
33580;DHT22;19909;43.644;-79.438;2022-11-15T04:44:16;19.40;37.60
33580;DHT22;19909;43.644;-79.438;2022-11-15T04:46:43;19.40;37.60
33580;DHT22;19909;43.644;-79.438;2022-11-15T04:49:09;19.40;37.60
33580;DHT22;19909;43.644;-79.438;2022-11-15T04:51:36;19.40;37.40
33580;DHT22;19909;43.644;-79.438;2022-11-15T04:54:02;19.40;37.30
33580;DHT22;19909;43.644;-79.438;2022-11-15T04:56:29;19.50;37.40
33580;DHT22;19909;43.644;-79.438;2022-11-15T04:58:55;19.50;37.20
33580;DHT22;19909;43.644;-79.438;2022-11-15T05:01:22;19.50;37.30
33580;DHT22;19909;43.644;-79.438;2022-11-15T05:03:48;19.60;37.30
33580;DHT22;19909;43.644;-79.438;2022-11-15T05:06:33;19.70;37.40
33580;DHT22;19909;43.644;-79.438;2022-11-15T05:09:00;19.70;37.30
33580;DHT22;19909;43.644;-79.438;2022-11-15T05:11:26;19.80;37.60
33580;DHT22;19909;43.644;-79.438;2022-11-15T05:13:55;19.90;37.50
33580;DHT22;19909;43.644;-79.438;2022-11-15T05:16:22;19.90;37.50
33580;DHT22;19909;43.644;-79.438;2022-11-15T05:18:53;19.90;37.50
33580;DHT22;19909;43.644;-79.438;2022-11-15T05:21:20;19.90;37.50
33580;DHT22;19909;43.644;-79.438;2022-11-15T05:23:47;19.90;37.60
33580;DHT22;19909;43.644;-79.438;2022-11-15T05:26:16;19.90;37.30
33580;DHT22;19909;43.644;-79.438;2022-11-15T05:28:43;19.90;37.30
33580;DHT22;19909;43.644;-79.438;2022-11-15T05:31:12;20.00;37.50
33580;DHT22;19909;43.644;-79.438;2022-11-15T05:33:40;19.90;37.30
33580;DHT22;19909;43.644;-79.438;2022-11-15T05:38:46;19.90;37.20
33580;DHT22;19909;43.644;-79.438;2022-11-15T05:41:15;19.90;37.30
33580;DHT22;19909;43.644;-79.438;2022-11-15T05:43:42;19.90;37.50
33580;DHT22;19909;43.644;-79.438;2022-11-15T05:46:09;19.90;37.50
33580;DHT22;19909;43.644;-79.438;2022-11-15T05:48:37;19.90;37.30
33580;DHT22;19909;43.644;-79.438;2022-11-15T05:51:07;19.90;37.20
33580;DHT22;19909;43.644;-79.438;2022-11-15T05:53:35;19.90;37.20
33580;DHT22;19909;43.644;-79.438;2022-11-15T05:56:04;19.90;37.40
33580;DHT22;19909;43.644;-79.438;2022-11-15T05:58:32;19.90;37.30
33580;DHT22;19909;43.644;-79.438;2022-11-15T06:01:00;19.90;37.40
33580;DHT22;19909;43.644;-79.438;2022-11-15T06:03:26;19.90;37.30
33580;DHT22;19909;43.644;-79.438;2022-11-15T06:05:53;19.90;37.20
33580;DHT22;19909;43.644;-79.438;2022-11-15T06:08:19;19.90;37.20
33580;DHT22;19909;43.644;-79.438;2022-11-15T06:10:46;19.80;37.20
33580;DHT22;19909;43.644;-79.438;2022-11-15T06:13:12;19.80;37.30
33580;DHT22;19909;43.644;-79.438;2022-11-15T06:15:38;19.90;37.40
33580;DHT22;19909;43.644;-79.438;2022-11-15T06:18:05;19.90;37.30
33580;DHT22;19909;43.644;-79.438;2022-11-15T06:20:31;19.80;37.60
33580;DHT22;19909;43.644;-79.438;2022-11-15T06:22:59;19.80;37.30
33580;DHT22;19909;43.644;-79.438;2022-11-15T06:25:27;19.80;37.20
33580;DHT22;19909;43.644;-79.438;2022-11-15T06:27:54;19.80;37.30
33580;DHT22;19909;43.644;-79.438;2022-11-15T06:30:21;19.80;37.40
33580;DHT22;19909;43.644;-79.438;2022-11-15T06:32:48;19.80;37.40
33580;DHT22;19909;43.644;-79.438;2022-11-15T06:35:15;19.80;37.30
33580;DHT22;19909;43.644;-79.438;2022-11-15T06:37:42;19.80;37.10
33580;DHT22;19909;43.644;-79.438;2022-11-15T06:40:09;19.80;37.10
33580;DHT22;19909;43.644;-79.438;2022-11-15T06:42:36;19.80;37.30
33580;DHT22;19909;43.644;-79.438;2022-11-15T06:45:03;19.80;37.30
33580;DHT22;19909;43.644;-79.438;2022-11-15T06:47:29;19.80;37.30
33580;DHT22;19909;43.644;-79.438;2022-11-15T06:49:56;19.80;37.10
33580;DHT22;19909;43.644;-79.438;2022-11-15T06:52:23;19.80;37.10
33580;DHT22;19909;43.644;-79.438;2022-11-15T06:54:49;19.80;37.10
33580;DHT22;19909;43.644;-79.438;2022-11-15T06:57:16;19.80;37.20
33580;DHT22;19909;43.644;-79.438;2022-11-15T06:59:42;19.70;37.30
33580;DHT22;19909;43.644;-79.438;2022-11-15T07:02:14;19.80;37.30
33580;DHT22;19909;43.644;-79.438;2022-11-15T07:04:41;19.80;37.20
33580;DHT22;19909;43.644;-79.438;2022-11-15T07:07:07;19.80;37.20
33580;DHT22;19909;43.644;-79.438;2022-11-15T07:09:34;19.70;37.00
33580;DHT22;19909;43.644;-79.438;2022-11-15T07:12:00;19.70;37.20
33580;DHT22;19909;43.644;-79.438;2022-11-15T07:14:26;19.70;37.40
33580;DHT22;19909;43.644;-79.438;2022-11-15T07:16:53;19.70;37.40
33580;DHT22;19909;43.644;-79.438;2022-11-15T07:19:19;19.70;37.30
33580;DHT22;19909;43.644;-79.438;2022-11-15T07:21:45;19.70;37.10
33580;DHT22;19909;43.644;-79.438;2022-11-15T07:24:12;19.70;37.10
33580;DHT22;19909;43.644;-79.438;2022-11-15T07:26:39;19.70;37.30
33580;DHT22;19909;43.644;-79.438;2022-11-15T07:29:05;19.70;37.40
33580;DHT22;19909;43.644;-79.438;2022-11-15T07:31:32;19.70;37.40
33580;DHT22;19909;43.644;-79.438;2022-11-15T07:33:58;19.70;37.20
33580;DHT22;19909;43.644;-79.438;2022-11-15T07:36:25;19.70;37.10
33580;DHT22;19909;43.644;-79.438;2022-11-15T07:38:51;19.60;37.10
33580;DHT22;19909;43.644;-79.438;2022-11-15T07:41:18;19.70;37.20
33580;DHT22;19909;43.644;-79.438;2022-11-15T07:43:44;19.70;37.30
33580;DHT22;19909;43.644;-79.438;2022-11-15T07:46:11;19.70;37.40
33580;DHT22;19909;43.644;-79.438;2022-11-15T07:48:38;19.70;37.30
33580;DHT22;19909;43.644;-79.438;2022-11-15T07:51:06;19.70;37.20
33580;DHT22;19909;43.644;-79.438;2022-11-15T07:53:33;19.60;37.20
33580;DHT22;19909;43.644;-79.438;2022-11-15T07:55:59;19.70;37.30
33580;DHT22;19909;43.644;-79.438;2022-11-15T07:58:26;19.60;37.20
33580;DHT22;19909;43.644;-79.438;2022-11-15T08:00:52;19.60;37.40
33580;DHT22;19909;43.644;-79.438;2022-11-15T08:03:18;19.60;37.20
33580;DHT22;19909;43.644;-79.438;2022-11-15T08:05:50;19.60;37.20
33580;DHT22;19909;43.644;-79.438;2022-11-15T08:08:17;19.60;37.10
33580;DHT22;19909;43.644;-79.438;2022-11-15T08:10:43;19.60;37.00
33580;DHT22;19909;43.644;-79.438;2022-11-15T08:13:12;19.60;37.20
33580;DHT22;19909;43.644;-79.438;2022-11-15T08:15:38;19.60;37.80
33580;DHT22;19909;43.644;-79.438;2022-11-15T08:18:16;19.60;37.20
33580;DHT22;19909;43.644;-79.438;2022-11-15T08:20:43;19.60;37.00
33580;DHT22;19909;43.644;-79.438;2022-11-15T08:23:11;19.60;37.00
33580;DHT22;19909;43.644;-79.438;2022-11-15T08:25:39;19.60;37.10
33580;DHT22;19909;43.644;-79.438;2022-11-15T08:28:09;19.50;37.20
33580;DHT22;19909;43.644;-79.438;2022-11-15T08:30:38;19.60;37.30
33580;DHT22;19909;43.644;-79.438;2022-11-15T08:33:11;19.60;37.20
33580;DHT22;19909;43.644;-79.438;2022-11-15T08:35:38;19.60;37.20
33580;DHT22;19909;43.644;-79.438;2022-11-15T08:38:04;19.50;36.90
33580;DHT22;19909;43.644;-79.438;2022-11-15T08:40:30;19.50;36.90
33580;DHT22;19909;43.644;-79.438;2022-11-15T08:42:57;19.50;36.90
33580;DHT22;19909;43.644;-79.438;2022-11-15T08:45:24;19.60;36.80
33580;DHT22;19909;43.644;-79.438;2022-11-15T08:47:51;19.60;36.80
33580;DHT22;19909;43.644;-79.438;2022-11-15T08:50:17;19.70;36.90
33580;DHT22;19909;43.644;-79.438;2022-11-15T08:52:44;19.80;37.00
33580;DHT22;19909;43.644;-79.438;2022-11-15T08:55:10;19.80;36.90
33580;DHT22;19909;43.644;-79.438;2022-11-15T08:57:36;19.90;37.00
33580;DHT22;19909;43.644;-79.438;2022-11-15T09:00:04;19.90;36.90
33580;DHT22;19909;43.644;-79.438;2022-11-15T09:02:30;20.00;37.20
33580;DHT22;19909;43.644;-79.438;2022-11-15T09:04:57;20.00;37.10
33580;DHT22;19909;43.644;-79.438;2022-11-15T09:07:23;20.00;37.00
33580;DHT22;19909;43.644;-79.438;2022-11-15T09:09:49;20.00;37.00
33580;DHT22;19909;43.644;-79.438;2022-11-15T09:12:16;20.00;37.00
33580;DHT22;19909;43.644;-79.438;2022-11-15T09:14:42;20.00;37.00
33580;DHT22;19909;43.644;-79.438;2022-11-15T09:17:09;20.00;37.10
33580;DHT22;19909;43.644;-79.438;2022-11-15T09:19:36;20.00;37.00
33580;DHT22;19909;43.644;-79.438;2022-11-15T09:22:06;20.00;37.00
33580;DHT22;19909;43.644;-79.438;2022-11-15T09:24:33;20.00;36.80
33580;DHT22;19909;43.644;-79.438;2022-11-15T09:26:59;20.00;36.90
33580;DHT22;19909;43.644;-79.438;2022-11-15T09:29:26;20.00;37.00
33580;DHT22;19909;43.644;-79.438;2022-11-15T09:31:53;20.00;36.90
33580;DHT22;19909;43.644;-79.438;2022-11-15T09:34:19;19.90;36.80
33580;DHT22;19909;43.644;-79.438;2022-11-15T09:36:47;19.90;36.70
33580;DHT22;19909;43.644;-79.438;2022-11-15T09:39:13;20.00;36.80
33580;DHT22;19909;43.644;-79.438;2022-11-15T09:47:28;20.00;36.90
33580;DHT22;19909;43.644;-79.438;2022-11-15T09:50:00;20.00;36.80
33580;DHT22;19909;43.644;-79.438;2022-11-15T09:52:27;19.90;36.60
33580;DHT22;19909;43.644;-79.438;2022-11-15T09:54:54;19.90;36.70
33580;DHT22;19909;43.644;-79.438;2022-11-15T09:57:50;19.90;36.90
33580;DHT22;19909;43.644;-79.438;2022-11-15T10:00:33;19.90;36.90
33580;DHT22;19909;43.644;-79.438;2022-11-15T10:03:08;19.90;36.80
33580;DHT22;19909;43.644;-79.438;2022-11-15T10:05:42;19.90;36.80
33580;DHT22;19909;43.644;-79.438;2022-11-15T10:10:59;19.80;36.80
33580;DHT22;19909;43.644;-79.438;2022-11-15T10:13:30;19.80;36.80
33580;DHT22;19909;43.644;-79.438;2022-11-15T10:24:46;19.80;36.70
33580;DHT22;19909;43.644;-79.438;2022-11-15T10:27:16;19.80;36.90
33580;DHT22;19909;43.644;-79.438;2022-11-15T10:29:47;19.80;37.00
33580;DHT22;19909;43.644;-79.438;2022-11-15T10:32:19;19.80;37.00
33580;DHT22;19909;43.644;-79.438;2022-11-15T10:34:46;19.80;36.80
33580;DHT22;19909;43.644;-79.438;2022-11-15T10:37:13;19.80;36.60
33580;DHT22;19909;43.644;-79.438;2022-11-15T10:39:39;19.80;36.60
33580;DHT22;19909;43.644;-79.438;2022-11-15T10:42:27;19.80;36.80
33580;DHT22;19909;43.644;-79.438;2022-11-15T10:44:54;19.80;37.00
33580;DHT22;19909;43.644;-79.438;2022-11-15T10:47:30;19.80;36.90
33580;DHT22;19909;43.644;-79.438;2022-11-15T10:50:05;19.80;36.70
33580;DHT22;19909;43.644;-79.438;2022-11-15T10:52:34;19.80;36.60
33580;DHT22;19909;43.644;-79.438;2022-11-15T10:57:38;19.80;36.90
33580;DHT22;19909;43.644;-79.438;2022-11-15T11:00:07;19.80;37.10
33580;DHT22;19909;43.644;-79.438;2022-11-15T11:02:38;19.80;37.00
33580;DHT22;19909;43.644;-79.438;2022-11-15T11:05:24;19.80;36.80
33580;DHT22;19909;43.644;-79.438;2022-11-15T11:08:05;19.70;36.50
33580;DHT22;19909;43.644;-79.438;2022-11-15T11:10:57;19.70;36.70
33580;DHT22;19909;43.644;-79.438;2022-11-15T11:13:28;19.70;36.90
33580;DHT22;19909;43.644;-79.438;2022-11-15T11:27:20;19.70;36.80
33580;DHT22;19909;43.644;-79.438;2022-11-15T11:35:24;19.70;36.60
33580;DHT22;19909;43.644;-79.438;2022-11-15T11:38:15;19.70;36.50
33580;DHT22;19909;43.644;-79.438;2022-11-15T11:40:43;19.70;36.50
33580;DHT22;19909;43.644;-79.438;2022-11-15T11:54:54;19.60;36.50
33580;DHT22;19909;43.644;-79.438;2022-11-15T11:57:41;19.60;36.60
33580;DHT22;19909;43.644;-79.438;2022-11-15T12:00:24;19.60;36.70
33580;DHT22;19909;43.644;-79.438;2022-11-15T12:05:58;19.60;36.60
33580;DHT22;19909;43.644;-79.438;2022-11-15T12:08:56;19.60;36.50
33580;DHT22;19909;43.644;-79.438;2022-11-15T12:17:40;19.60;36.80
33580;DHT22;19909;43.644;-79.438;2022-11-15T12:20:22;19.60;36.70
33580;DHT22;19909;43.644;-79.438;2022-11-15T12:23:10;19.60;36.60
33580;DHT22;19909;43.644;-79.438;2022-11-15T12:26:09;19.50;36.50
33580;DHT22;19909;43.644;-79.438;2022-11-15T12:31:15;19.60;36.90
33580;DHT22;19909;43.644;-79.438;2022-11-15T12:33:45;19.60;36.70
33580;DHT22;19909;43.644;-79.438;2022-11-15T12:39:00;19.50;36.50
33580;DHT22;19909;43.644;-79.438;2022-11-15T12:41:36;19.50;36.70
33580;DHT22;19909;43.644;-79.438;2022-11-15T12:44:04;19.50;36.80
33580;DHT22;19909;43.644;-79.438;2022-11-15T12:49:08;19.50;36.60
33580;DHT22;19909;43.644;-79.438;2022-11-15T13:02:24;19.50;36.40
33580;DHT22;19909;43.644;-79.438;2022-11-15T13:04:53;19.60;36.40
33580;DHT22;19909;43.644;-79.438;2022-11-15T13:12:56;19.90;36.60
33580;DHT22;19909;43.644;-79.438;2022-11-15T13:18:40;20.00;36.70
33580;DHT22;19909;43.644;-79.438;2022-11-15T13:21:24;20.00;36.70
33580;DHT22;19909;43.644;-79.438;2022-11-15T13:24:13;20.00;36.80
33580;DHT22;19909;43.644;-79.438;2022-11-15T13:26:40;20.00;36.80
33580;DHT22;19909;43.644;-79.438;2022-11-15T13:29:15;20.00;36.80
33580;DHT22;19909;43.644;-79.438;2022-11-15T13:31:43;20.00;36.80
33580;DHT22;19909;43.644;-79.438;2022-11-15T13:34:30;20.00;36.80
33580;DHT22;19909;43.644;-79.438;2022-11-15T13:36:59;20.00;36.60
33580;DHT22;19909;43.644;-79.438;2022-11-15T13:39:32;20.00;36.50
33580;DHT22;19909;43.644;-79.438;2022-11-15T13:42:00;20.00;36.50
33580;DHT22;19909;43.644;-79.438;2022-11-15T13:44:31;20.00;36.50
33580;DHT22;19909;43.644;-79.438;2022-11-15T13:47:13;20.00;36.60
33580;DHT22;19909;43.644;-79.438;2022-11-15T13:49:41;20.00;36.50
33580;DHT22;19909;43.644;-79.438;2022-11-15T13:52:10;20.00;36.50
33580;DHT22;19909;43.644;-79.438;2022-11-15T13:54:59;20.00;36.40
33580;DHT22;19909;43.644;-79.438;2022-11-15T13:57:34;20.00;36.50
33580;DHT22;19909;43.644;-79.438;2022-11-15T14:00:22;20.00;36.60
33580;DHT22;19909;43.644;-79.438;2022-11-15T14:02:50;20.00;36.50
33580;DHT22;19909;43.644;-79.438;2022-11-15T14:05:19;20.00;36.40
33580;DHT22;19909;43.644;-79.438;2022-11-15T14:10:31;19.90;36.30
33580;DHT22;19909;43.644;-79.438;2022-11-15T14:12:59;19.90;36.40
33580;DHT22;19909;43.644;-79.438;2022-11-15T14:15:36;19.90;36.50
33580;DHT22;19909;43.644;-79.438;2022-11-15T14:18:04;19.90;36.40
33580;DHT22;19909;43.644;-79.438;2022-11-15T14:20:36;19.90;36.40
33580;DHT22;19909;43.644;-79.438;2022-11-15T14:23:27;19.90;36.30
33580;DHT22;19909;43.644;-79.438;2022-11-15T14:25:54;19.90;36.30
33580;DHT22;19909;43.644;-79.438;2022-11-15T14:30:52;19.90;37.00
33580;DHT22;19909;43.644;-79.438;2022-11-15T14:33:35;19.90;36.50
33580;DHT22;19909;43.644;-79.438;2022-11-15T14:38:33;19.90;36.40
33580;DHT22;19909;43.644;-79.438;2022-11-15T14:41:00;19.90;36.40
33580;DHT22;19909;43.644;-79.438;2022-11-15T14:43:26;19.90;36.50
33580;DHT22;19909;43.644;-79.438;2022-11-15T14:45:53;19.90;36.60
33580;DHT22;19909;43.644;-79.438;2022-11-15T14:48:19;19.90;36.50
33580;DHT22;19909;43.644;-79.438;2022-11-15T14:50:46;19.80;36.30
33580;DHT22;19909;43.644;-79.438;2022-11-15T14:53:17;19.80;36.30
33580;DHT22;19909;43.644;-79.438;2022-11-15T14:55:45;19.80;36.30
33580;DHT22;19909;43.644;-79.438;2022-11-15T14:58:11;19.80;36.50
33580;DHT22;19909;43.644;-79.438;2022-11-15T15:00:40;19.80;36.60
33580;DHT22;19909;43.644;-79.438;2022-11-15T15:03:07;19.80;36.40
33580;DHT22;19909;43.644;-79.438;2022-11-15T15:05:39;19.80;36.30
33580;DHT22;19909;43.644;-79.438;2022-11-15T15:08:06;19.80;36.30
33580;DHT22;19909;43.644;-79.438;2022-11-15T15:10:39;19.80;36.30
33580;DHT22;19909;43.644;-79.438;2022-11-15T15:13:06;19.80;36.60
33580;DHT22;19909;43.644;-79.438;2022-11-15T15:15:35;19.80;36.60
33580;DHT22;19909;43.644;-79.438;2022-11-15T15:18:02;19.80;36.50
33580;DHT22;19909;43.644;-79.438;2022-11-15T15:20:33;19.80;36.50
33580;DHT22;19909;43.644;-79.438;2022-11-15T15:23:00;19.70;36.30
33580;DHT22;19909;43.644;-79.438;2022-11-15T15:25:32;19.70;36.50
33580;DHT22;19909;43.644;-79.438;2022-11-15T15:27:59;19.70;36.60
33580;DHT22;19909;43.644;-79.438;2022-11-15T15:30:28;19.70;36.80
33580;DHT22;19909;43.644;-79.438;2022-11-15T15:32:54;19.70;36.50
33580;DHT22;19909;43.644;-79.438;2022-11-15T15:35:21;19.70;36.40
33580;DHT22;19909;43.644;-79.438;2022-11-15T15:37:49;19.70;36.30
33580;DHT22;19909;43.644;-79.438;2022-11-15T15:40:20;19.70;36.40
33580;DHT22;19909;43.644;-79.438;2022-11-15T15:42:47;19.70;36.70
33580;DHT22;19909;43.644;-79.438;2022-11-15T15:45:15;19.70;36.60
33580;DHT22;19909;43.644;-79.438;2022-11-15T15:47:42;19.70;36.60
33580;DHT22;19909;43.644;-79.438;2022-11-15T15:52:44;19.70;36.30
33580;DHT22;19909;43.644;-79.438;2022-11-15T15:55:10;19.70;36.40
33580;DHT22;19909;43.644;-79.438;2022-11-15T15:57:38;19.70;36.60
33580;DHT22;19909;43.644;-79.438;2022-11-15T16:00:05;19.70;36.70
33580;DHT22;19909;43.644;-79.438;2022-11-15T16:02:32;19.70;36.60
33580;DHT22;19909;43.644;-79.438;2022-11-15T16:04:58;19.70;36.60
33580;DHT22;19909;43.644;-79.438;2022-11-15T16:07:24;19.70;36.50
33580;DHT22;19909;43.644;-79.438;2022-11-15T16:09:54;19.70;36.50
33580;DHT22;19909;43.644;-79.438;2022-11-15T16:12:34;19.70;36.70
33580;DHT22;19909;43.644;-79.438;2022-11-15T16:15:02;19.60;36.70
33580;DHT22;19909;43.644;-79.438;2022-11-15T16:17:49;19.70;36.70
33580;DHT22;19909;43.644;-79.438;2022-11-15T16:20:39;19.60;36.50
33580;DHT22;19909;43.644;-79.438;2022-11-15T16:23:10;19.60;36.50
33580;DHT22;19909;43.644;-79.438;2022-11-15T16:25:48;19.60;36.60
33580;DHT22;19909;43.644;-79.438;2022-11-15T16:28:26;19.60;36.70
33580;DHT22;19909;43.644;-79.438;2022-11-15T16:31:02;19.60;36.90
33580;DHT22;19909;43.644;-79.438;2022-11-15T16:33:29;19.60;36.70
33580;DHT22;19909;43.644;-79.438;2022-11-15T16:35:55;19.60;36.50
33580;DHT22;19909;43.644;-79.438;2022-11-15T16:38:22;19.60;36.50
33580;DHT22;19909;43.644;-79.438;2022-11-15T16:40:48;19.60;36.70
33580;DHT22;19909;43.644;-79.438;2022-11-15T16:43:15;19.50;36.80
33580;DHT22;19909;43.644;-79.438;2022-11-15T16:45:41;19.60;36.80
33580;DHT22;19909;43.644;-79.438;2022-11-15T16:48:23;19.60;36.70
33580;DHT22;19909;43.644;-79.438;2022-11-15T16:50:50;19.50;36.60
33580;DHT22;19909;43.644;-79.438;2022-11-15T16:53:19;19.60;36.50
33580;DHT22;19909;43.644;-79.438;2022-11-15T16:55:46;19.50;36.70
33580;DHT22;19909;43.644;-79.438;2022-11-15T16:58:12;19.60;36.90
33580;DHT22;19909;43.644;-79.438;2022-11-15T17:00:38;19.50;36.90
33580;DHT22;19909;43.644;-79.438;2022-11-15T17:03:05;19.50;36.80
33580;DHT22;19909;43.644;-79.438;2022-11-15T17:05:32;19.50;36.60
33580;DHT22;19909;43.644;-79.438;2022-11-15T17:07:58;19.60;36.60
33580;DHT22;19909;43.644;-79.438;2022-11-15T17:10:26;19.50;36.60
33580;DHT22;19909;43.644;-79.438;2022-11-15T17:12:54;19.50;36.80
33580;DHT22;19909;43.644;-79.438;2022-11-15T17:15:21;19.50;37.50
33580;DHT22;19909;43.644;-79.438;2022-11-15T17:17:53;19.50;36.80
33580;DHT22;19909;43.644;-79.438;2022-11-15T17:20:21;19.50;36.60